createdAt,value
2022-12-08T00:01:22.122Z,100010.03
2022-12-08T00:03:49.741Z,100009.00
2022-12-08T00:06:50.382Z,100007.22
2022-12-08T00:09:24.247Z,100011.56
2022-12-08T00:11:55.462Z,100002.94
2022-12-08T00:14:34.225Z,100002.28
2022-12-08T00:17:03.305Z,100001.00
2022-12-08T00:19:31.252Z,100000.31
2022-12-08T00:21:59.373Z,100001.91
2022-12-08T00:24:31.573Z,99991.59
2022-12-08T00:26:58.682Z,99993.16
2022-12-08T00:29:25.579Z,99986.72
2022-12-08T00:31:52.841Z,99999.19
2022-12-08T00:34:20.130Z,99992.03
2022-12-08T00:36:47.178Z,99995.13
2022-12-08T00:39:16.069Z,99996.94
2022-12-08T00:42:01.457Z,99987.44
2022-12-08T00:44:28.817Z,99982.75
2022-12-08T00:46:55.863Z,99983.91
2022-12-08T00:49:23.341Z,99983.06
2022-12-08T00:51:50.775Z,99984.13
2022-12-08T00:54:18.442Z,99987.63
2022-12-08T00:56:46.328Z,99989.16
2022-12-08T00:59:14.689Z,99984.66
2022-12-08T01:01:43.798Z,99990.16
2022-12-08T01:04:15.740Z,99994.59
2022-12-08T01:06:43.875Z,99995.41
2022-12-08T01:09:12.774Z,99992.22
2022-12-08T01:11:39.887Z,99993.09
2022-12-08T01:14:06.932Z,99996.03
2022-12-08T01:16:36.095Z,99990.28
2022-12-08T01:19:04.746Z,99990.16
2022-12-08T01:21:31.598Z,99980.44
2022-12-08T01:24:01.219Z,99976.44
2022-12-08T01:26:28.212Z,99974.63
2022-12-08T01:28:55.281Z,99983.44
2022-12-08T01:31:23.164Z,99973.75
2022-12-08T01:33:50.529Z,99971.28
2022-12-08T01:36:29.199Z,99966.31
2022-12-08T01:39:01.240Z,99963.75
2022-12-08T01:41:32.369Z,99960.47
2022-12-08T01:44:04.833Z,99953.81
2022-12-08T01:46:33.482Z,99955.97
2022-12-08T01:49:23.378Z,99955.16
2022-12-08T01:51:59.798Z,99954.03
2022-12-08T01:54:31.957Z,99952.41
2022-12-08T01:57:14.579Z,99945.28
2022-12-08T01:59:50.076Z,99944.94
2022-12-08T02:02:17.207Z,99934.75
2022-12-08T02:04:44.315Z,99942.13
2022-12-08T02:07:13.497Z,99942.44
2022-12-08T02:09:42.125Z,99940.59
2022-12-08T02:12:10.319Z,99932.28
2022-12-08T02:14:37.550Z,99932.28
2022-12-08T02:17:36.744Z,99923.66
2022-12-08T02:20:31.635Z,99921.66
2022-12-08T02:23:37.969Z,99914.84
2022-12-08T02:26:29.513Z,99908.00
2022-12-08T02:29:17.129Z,99900.47
2022-12-08T02:32:32.360Z,99913.59
2022-12-08T02:35:26.391Z,99905.50
2022-12-08T02:38:14.351Z,99902.53
2022-12-08T02:41:05.771Z,99918.44
2022-12-08T02:43:55.703Z,99914.94
2022-12-08T02:46:28.591Z,99916.84
2022-12-08T02:48:56.777Z,99903.78
2022-12-08T02:51:23.631Z,99909.56
2022-12-08T02:53:51.071Z,99906.22
2022-12-08T02:56:51.928Z,99895.66
2022-12-08T02:59:42.780Z,99888.13
2022-12-08T03:02:55.542Z,99905.22
2022-12-08T03:05:51.780Z,99890.31
2022-12-08T03:08:25.002Z,99890.53
2022-12-08T03:11:22.009Z,99886.69
2022-12-08T03:14:01.461Z,99891.31
2022-12-08T03:16:30.880Z,99888.28
2022-12-08T03:19:18.096Z,99881.97
2022-12-08T03:21:48.833Z,99873.63
2022-12-08T03:24:17.745Z,99870.81
2022-12-08T03:27:07.190Z,99874.94
2022-12-08T03:29:34.544Z,99878.06
2022-12-08T03:32:12.116Z,99871.19
2022-12-08T03:34:42.324Z,99857.66
2022-12-08T03:37:09.070Z,99869.97
2022-12-08T03:39:35.910Z,99860.81
2022-12-08T03:42:02.843Z,99862.16
2022-12-08T03:44:29.633Z,99862.34
2022-12-08T03:46:56.547Z,99858.19
2022-12-08T03:49:23.446Z,99853.47
2022-12-08T03:51:51.395Z,99848.50
2022-12-08T03:54:18.275Z,99842.66
2022-12-08T03:56:45.188Z,99843.94
2022-12-08T03:59:12.051Z,99839.53
2022-12-08T04:01:39.103Z,99831.94
2022-12-08T04:04:06.057Z,99834.53
2022-12-08T04:06:33.023Z,99839.00
2022-12-08T04:08:59.853Z,99834.78
2022-12-08T04:11:26.854Z,99834.13
2022-12-08T04:13:56.657Z,99833.19
2022-12-08T04:16:25.476Z,99837.16
2022-12-08T04:18:53.642Z,99832.00
2022-12-08T04:21:22.003Z,99823.94
2022-12-08T04:23:49.932Z,99825.25
2022-12-08T04:26:17.094Z,99824.88
2022-12-08T04:28:43.957Z,99831.56
2022-12-08T04:31:11.147Z,99827.25
2022-12-08T04:33:38.231Z,99833.88
2022-12-08T04:36:06.429Z,99834.13
2022-12-08T04:38:34.353Z,99833.69
2022-12-08T04:41:02.375Z,99832.63
2022-12-08T04:43:29.822Z,99828.47
2022-12-08T04:45:56.699Z,99831.78
2022-12-08T04:48:24.048Z,99840.44
2022-12-08T04:50:51.690Z,99841.63
2022-12-08T04:53:19.898Z,99844.00
2022-12-08T04:55:48.794Z,99836.00
2022-12-08T04:58:17.667Z,99840.25
2022-12-08T05:00:45.559Z,99829.13
2022-12-08T05:03:13.652Z,99831.03
2022-12-08T05:05:41.891Z,99832.03
2022-12-08T05:08:10.594Z,99833.03
2022-12-08T05:10:37.991Z,99833.53
2022-12-08T05:13:04.879Z,99828.41
2022-12-08T05:15:31.761Z,99820.66
2022-12-08T05:17:58.598Z,99815.91
2022-12-08T05:20:25.595Z,99818.75
2022-12-08T05:22:52.408Z,99819.44
2022-12-08T05:25:19.346Z,99817.13
2022-12-08T05:27:46.238Z,99815.31
2022-12-08T05:30:13.279Z,99815.59
2022-12-08T05:32:40.077Z,99811.44
2022-12-08T05:35:07.469Z,99812.00
2022-12-08T05:37:34.263Z,99806.94
2022-12-08T05:40:01.198Z,99804.97
2022-12-08T05:42:28.120Z,99799.00
2022-12-08T05:44:55.062Z,99796.19
2022-12-08T05:47:21.940Z,99800.47
2022-12-08T05:49:48.950Z,99789.72
2022-12-08T05:52:17.067Z,99791.53
2022-12-08T05:54:44.438Z,99788.97
2022-12-08T05:57:11.274Z,99782.38
2022-12-08T05:59:39.149Z,99774.75
2022-12-08T06:02:06.012Z,99775.84
2022-12-08T06:04:32.928Z,99783.72
2022-12-08T06:06:59.752Z,99779.88
2022-12-08T06:09:26.669Z,99788.22
2022-12-08T06:11:53.464Z,99788.06
2022-12-08T06:14:20.411Z,99796.75
2022-12-08T06:16:47.275Z,99803.63
2022-12-08T06:19:14.206Z,99807.09
2022-12-08T06:21:40.983Z,99806.13
2022-12-08T06:24:08.203Z,99803.09
2022-12-08T06:26:36.205Z,99790.41
2022-12-08T06:29:05.048Z,99791.91
2022-12-08T06:31:32.064Z,99799.44
2022-12-08T06:33:59.001Z,99804.22
2022-12-08T06:36:28.159Z,99807.84
2022-12-08T06:38:56.120Z,99805.47
2022-12-08T06:41:23.041Z,99799.13
2022-12-08T06:43:49.933Z,99795.09
2022-12-08T06:46:19.473Z,99790.97
2022-12-08T06:48:46.892Z,99790.97
2022-12-08T06:51:22.960Z,99795.47
2022-12-08T06:53:50.074Z,99805.56
2022-12-08T06:56:20.232Z,99796.88
2022-12-08T06:58:52.062Z,99784.31
2022-12-08T07:01:19.795Z,99788.91
2022-12-08T07:03:47.462Z,99777.91
2022-12-08T07:06:18.144Z,99778.34
2022-12-08T07:08:44.998Z,99762.28
2022-12-08T07:11:18.065Z,99744.31
2022-12-08T07:13:48.047Z,99754.09
2022-12-08T07:16:15.229Z,99763.38
2022-12-08T07:18:43.123Z,99770.72
2022-12-08T07:21:12.478Z,99778.44
2022-12-08T07:23:39.459Z,99796.38
2022-12-08T07:26:08.496Z,99793.13
2022-12-08T07:28:37.098Z,99796.06
2022-12-08T07:31:05.039Z,99801.59
2022-12-08T07:33:32.891Z,99786.63
2022-12-08T07:36:05.343Z,99786.34
2022-12-08T07:38:32.613Z,99781.88
2022-12-08T07:40:59.626Z,99780.22
2022-12-08T07:43:26.557Z,99774.72
2022-12-08T07:45:53.544Z,99778.09
2022-12-08T07:48:20.575Z,99787.00
2022-12-08T07:50:47.885Z,99791.78
2022-12-08T07:53:15.169Z,99792.78
2022-12-08T07:55:43.342Z,99791.50
2022-12-08T07:58:11.340Z,99791.41
2022-12-08T08:00:38.495Z,99794.16
2022-12-08T08:03:06.310Z,99795.63
2022-12-08T08:05:33.232Z,99784.06
2022-12-08T08:08:00.342Z,99793.25
2022-12-08T08:10:27.343Z,99791.78
2022-12-08T08:12:54.359Z,99786.09
2022-12-08T08:15:21.501Z,99784.50
2022-12-08T08:17:51.983Z,99783.69
2022-12-08T08:20:20.407Z,99786.63
2022-12-08T08:22:48.333Z,99786.84
2022-12-08T08:25:15.992Z,99778.91
2022-12-08T08:27:43.501Z,99783.53
2022-12-08T08:30:18.119Z,99792.78
2022-12-08T08:32:47.396Z,99780.38
2022-12-08T08:35:14.445Z,99786.34
2022-12-08T08:37:45.743Z,99785.97
2022-12-08T08:40:15.812Z,99773.84
2022-12-08T08:42:42.571Z,99769.19
2022-12-08T08:45:10.078Z,99769.72
2022-12-08T08:47:36.952Z,99774.50
2022-12-08T08:50:04.993Z,99771.28
2022-12-08T08:52:32.120Z,99764.22
2022-12-08T08:54:59.000Z,99764.63
2022-12-08T08:57:26.343Z,99764.59
2022-12-08T08:59:54.104Z,99768.44
2022-12-08T09:02:21.382Z,99769.19
2022-12-08T09:04:48.755Z,99765.03
2022-12-08T09:07:16.185Z,99764.75
2022-12-08T09:09:43.301Z,99764.59
2022-12-08T09:12:10.358Z,99768.69
2022-12-08T09:14:37.366Z,99773.91
2022-12-08T09:17:04.690Z,99772.44
2022-12-08T09:19:31.665Z,99771.91
2022-12-08T09:21:58.474Z,99776.97
2022-12-08T09:24:25.443Z,99772.75
2022-12-08T09:26:52.282Z,99776.88
2022-12-08T09:29:19.111Z,99776.44
2022-12-08T09:31:46.072Z,99768.50
2022-12-08T09:34:13.369Z,99758.88
2022-12-08T09:36:40.881Z,99760.78
2022-12-08T09:39:07.877Z,99760.06
2022-12-08T09:41:50.365Z,99758.56
2022-12-08T09:44:40.678Z,99760.28
2022-12-08T09:47:13.990Z,99752.03
2022-12-08T09:49:47.799Z,99746.97
2022-12-08T09:52:23.683Z,99745.69
2022-12-08T09:54:50.620Z,99739.41
2022-12-08T09:57:20.945Z,99738.97
2022-12-08T10:00:03.790Z,99736.97
2022-12-08T10:02:32.684Z,99728.09
2022-12-08T10:04:59.801Z,99734.09
2022-12-08T10:07:45.639Z,99726.25
2022-12-08T10:10:27.669Z,99713.00
2022-12-08T10:12:57.295Z,99715.47
2022-12-08T10:15:27.258Z,99713.63
2022-12-08T10:17:55.072Z,99701.44
2022-12-08T10:20:25.009Z,99703.47
2022-12-08T10:23:13.107Z,99698.25
2022-12-08T10:25:51.223Z,99703.47
2022-12-08T10:28:18.270Z,99702.81
2022-12-08T10:30:45.140Z,99697.94
2022-12-08T10:33:18.230Z,99699.72
2022-12-08T10:35:48.846Z,99694.72
2022-12-08T10:38:23.071Z,99693.25
2022-12-08T10:41:05.052Z,99694.72
2022-12-08T10:43:33.575Z,99687.59
2022-12-08T10:46:19.987Z,99681.22
2022-12-08T10:48:54.010Z,99679.59
2022-12-08T10:51:41.682Z,99679.91
2022-12-08T10:54:34.527Z,99678.72
2022-12-08T10:57:01.496Z,99678.38
2022-12-08T10:59:29.355Z,99672.00
2022-12-08T11:01:57.484Z,99672.16
2022-12-08T11:04:30.339Z,99660.63
2022-12-08T11:06:57.428Z,99662.16
2022-12-08T11:09:34.244Z,99663.72
2022-12-08T11:12:14.227Z,99668.66
2022-12-08T11:14:43.891Z,99664.00
2022-12-08T11:17:15.241Z,99658.78
2022-12-08T11:19:46.659Z,99655.78
2022-12-08T11:22:32.633Z,99653.50
2022-12-08T11:25:02.043Z,99641.94
2022-12-08T11:27:29.136Z,99644.06
2022-12-08T11:29:56.442Z,99639.09
2022-12-08T11:32:23.351Z,99638.16
2022-12-08T11:35:03.851Z,99635.16
2022-12-08T11:37:36.524Z,99629.41
2022-12-08T11:40:08.345Z,99634.00
2022-12-08T11:42:42.647Z,99639.28
2022-12-08T11:45:16.855Z,99649.09
2022-12-08T11:47:58.322Z,99643.00
2022-12-08T11:50:55.766Z,99644.66
2022-12-08T11:53:49.812Z,99632.53
2022-12-08T11:56:22.619Z,99634.41
2022-12-08T11:58:56.129Z,99630.56
2022-12-08T12:01:25.710Z,99632.31
2022-12-08T12:04:13.448Z,99631.38
2022-12-08T12:07:21.645Z,99627.22
2022-12-08T12:10:23.634Z,99609.16
2022-12-08T12:13:05.859Z,99607.38
2022-12-08T12:15:53.413Z,99604.19
2022-12-08T12:18:26.361Z,99609.47
2022-12-08T12:21:31.373Z,99611.06
2022-12-08T12:24:04.639Z,99611.56
2022-12-08T12:26:37.636Z,99601.00
2022-12-08T12:29:12.613Z,99591.31
2022-12-08T12:31:43.125Z,99599.75
2022-12-08T12:34:21.751Z,99605.53
2022-12-08T12:37:12.219Z,99599.06
2022-12-08T12:40:19.963Z,99594.44
2022-12-08T12:43:09.786Z,99593.41
2022-12-08T12:45:43.574Z,99600.91
2022-12-08T12:48:22.954Z,99597.66
2022-12-08T12:50:51.635Z,99598.81
2022-12-08T12:53:19.149Z,99598.66
2022-12-08T12:55:46.118Z,99600.97
2022-12-08T12:58:32.685Z,99592.19
2022-12-08T13:01:14.201Z,99594.84
2022-12-08T13:04:03.186Z,99595.38
2022-12-08T13:06:47.284Z,99581.28
2022-12-08T13:09:22.002Z,99590.13
2022-12-08T13:11:56.307Z,99583.38
2022-12-08T13:14:32.027Z,99585.53
2022-12-08T13:17:01.579Z,99587.44
2022-12-08T13:19:32.269Z,99586.56
2022-12-08T13:21:59.961Z,99585.31
2022-12-08T13:24:35.374Z,99595.66
2022-12-08T13:27:05.298Z,99595.38
2022-12-08T13:29:34.037Z,99598.47
2022-12-08T13:32:03.137Z,99596.63
2022-12-08T13:34:45.612Z,99586.78
2022-12-08T13:37:12.504Z,99593.13
2022-12-08T13:39:53.764Z,99588.97
2022-12-08T13:42:41.206Z,99585.66
2022-12-08T13:48:23.852Z,99587.78
2022-12-08T13:57:12.507Z,99585.53
2022-12-08T13:59:45.218Z,99586.09
2022-12-08T14:02:30.326Z,99590.31
2022-12-08T14:07:46.903Z,99588.00
2022-12-08T14:10:19.895Z,99587.28
2022-12-08T14:12:52.410Z,99588.03
2022-12-08T14:15:20.232Z,99600.13
2022-12-08T14:17:55.617Z,99598.47
2022-12-08T14:20:31.595Z,99600.47
2022-12-08T14:22:59.822Z,99587.34
2022-12-08T14:25:29.650Z,99586.16
2022-12-08T14:28:01.695Z,99587.50
2022-12-08T14:30:32.869Z,99588.41
2022-12-08T14:33:02.335Z,99594.19
2022-12-08T14:35:34.952Z,99596.41
2022-12-08T14:38:02.686Z,99600.22
2022-12-08T14:40:35.396Z,99592.88
2022-12-08T14:43:08.239Z,99594.78
2022-12-08T14:45:41.548Z,99596.00
2022-12-08T14:48:26.244Z,99592.97
2022-12-08T14:51:14.354Z,99594.47
2022-12-08T14:54:07.409Z,99603.06
2022-12-08T14:56:39.466Z,99593.88
2022-12-08T14:59:23.119Z,99597.94
2022-12-08T15:01:53.971Z,99603.59
2022-12-08T15:04:26.162Z,99604.19
2022-12-08T15:07:01.045Z,99604.41
2022-12-08T15:09:35.044Z,99609.13
2022-12-08T15:12:26.750Z,99606.38
2022-12-08T15:15:16.422Z,99608.31
2022-12-08T15:17:50.356Z,99619.88
2022-12-08T15:20:41.812Z,99614.09
2022-12-08T15:23:28.605Z,99599.88
2022-12-08T15:25:56.599Z,99604.94
2022-12-08T15:28:30.352Z,99603.47
2022-12-08T15:30:58.425Z,99610.13
2022-12-08T15:33:26.269Z,99602.13
2022-12-08T15:35:53.568Z,99606.88
2022-12-08T15:38:31.842Z,99599.50
2022-12-08T15:40:58.887Z,99603.31
2022-12-08T15:43:26.297Z,99611.78
2022-12-08T15:45:59.384Z,99606.38
2022-12-08T15:48:29.996Z,99612.94
2022-12-08T15:50:57.332Z,99612.34
2022-12-08T15:53:26.584Z,99613.66
2022-12-08T15:56:25.728Z,99603.00
2022-12-08T15:58:57.532Z,99603.47
2022-12-08T16:01:25.883Z,99598.47
2022-12-08T16:07:20.441Z,99606.25
2022-12-08T16:09:39.398Z,99621.66
2022-12-08T16:12:57.164Z,99621.28
2022-12-08T16:18:07.613Z,99617.00
2022-12-08T16:23:41.815Z,99617.72
2022-12-08T16:26:49.121Z,99633.78
2022-12-08T16:29:08.255Z,99625.63
2022-12-08T16:31:35.614Z,99627.47
2022-12-08T16:34:02.649Z,99619.91
2022-12-08T16:36:29.526Z,99620.75
2022-12-08T16:38:56.415Z,99605.25
2022-12-08T16:41:41.701Z,99613.91
2022-12-08T16:44:09.939Z,99606.78
2022-12-08T16:46:37.214Z,99615.94
2022-12-08T16:49:07.797Z,99618.03
2022-12-08T16:51:34.831Z,99600.00
2022-12-08T16:54:01.590Z,99605.41
2022-12-08T16:56:33.005Z,99621.34
2022-12-08T16:59:02.752Z,99630.50
2022-12-08T17:01:29.762Z,99630.44
2022-12-08T17:04:29.120Z,99632.50
2022-12-08T17:06:43.984Z,99617.78
2022-12-08T17:09:10.781Z,99598.94
2022-12-08T17:11:42.904Z,99595.88
2022-12-08T17:14:14.459Z,99597.09
2022-12-08T17:16:41.999Z,99593.13
2022-12-08T17:19:09.055Z,99586.06
2022-12-08T17:21:35.933Z,99583.25
2022-12-08T17:24:02.672Z,99593.59
2022-12-08T17:26:29.599Z,99590.16
2022-12-08T17:29:01.144Z,99597.56
2022-12-08T17:31:30.267Z,99597.31
2022-12-08T17:34:08.396Z,99585.72
2022-12-08T17:36:35.333Z,99580.09
2022-12-08T17:39:02.485Z,99575.97
2022-12-08T17:41:30.315Z,99579.88
2022-12-08T17:43:57.401Z,99593.47
2022-12-08T17:46:24.689Z,99602.94
2022-12-08T17:48:52.131Z,99604.03
2022-12-08T17:51:19.381Z,99601.63
2022-12-08T17:53:46.307Z,99602.19
2022-12-08T17:56:21.526Z,99610.22
2022-12-08T17:58:54.304Z,99610.91
2022-12-08T18:01:23.206Z,99618.97
2022-12-08T18:03:50.637Z,99611.41
2022-12-08T18:06:17.887Z,99612.03
2022-12-08T18:08:45.560Z,99611.53
2022-12-08T18:11:19.637Z,99605.56
2022-12-08T18:13:48.511Z,99605.25
2022-12-08T18:16:16.422Z,99610.34
2022-12-08T18:18:43.594Z,99598.22
2022-12-08T18:21:10.725Z,99602.06
2022-12-08T18:23:39.024Z,99610.03
2022-12-08T18:26:07.286Z,99616.63
2022-12-08T18:28:34.956Z,99618.59
2022-12-08T18:31:02.005Z,99617.38
2022-12-08T18:33:28.954Z,99612.47
2022-12-08T18:35:55.857Z,99619.63
2022-12-08T18:38:22.700Z,99620.72
2022-12-08T18:40:49.475Z,99615.84
2022-12-08T18:43:16.392Z,99613.56
2022-12-08T18:45:45.615Z,99621.34
2022-12-08T18:48:12.646Z,99620.84
2022-12-08T18:50:43.222Z,99619.00
2022-12-08T18:53:10.061Z,99619.19
2022-12-08T18:55:38.034Z,99615.94
2022-12-08T18:58:05.122Z,99609.97
2022-12-08T19:00:32.257Z,99617.00
2022-12-08T19:02:59.630Z,99616.75
2022-12-08T19:05:26.544Z,99615.13
2022-12-08T19:07:53.385Z,99617.63
2022-12-08T19:10:20.276Z,99624.22
2022-12-08T19:12:50.616Z,99620.22
2022-12-08T19:15:18.622Z,99630.56
2022-12-08T19:17:45.471Z,99634.44
2022-12-08T19:20:13.274Z,99633.78
2022-12-08T19:22:40.116Z,99635.72
2022-12-08T19:25:07.468Z,99630.00
2022-12-08T19:27:34.852Z,99635.25
2022-12-08T19:30:01.930Z,99623.78
2022-12-08T19:32:30.149Z,99628.38
2022-12-08T19:34:57.085Z,99625.88
2022-12-08T19:37:23.945Z,99619.63
2022-12-08T19:40:09.531Z,99622.53
2022-12-08T19:42:54.879Z,99633.88
2022-12-08T19:45:22.367Z,99634.50
2022-12-08T19:47:49.466Z,99627.72
2022-12-08T19:50:35.894Z,99638.69
2022-12-08T19:53:15.049Z,99633.97
2022-12-08T19:55:43.265Z,99642.25
2022-12-08T19:58:11.014Z,99647.81
2022-12-08T20:00:39.206Z,99634.97
2022-12-08T20:03:06.793Z,99628.28
2022-12-08T20:05:36.307Z,99631.34
2022-12-08T20:08:03.223Z,99638.06
2022-12-08T20:10:34.079Z,99632.63
2022-12-08T20:13:19.997Z,99641.63
2022-12-08T20:15:47.214Z,99643.66
2022-12-08T20:18:15.401Z,99636.72
2022-12-08T20:20:45.288Z,99642.66
2022-12-08T20:23:12.340Z,99652.03
2022-12-08T20:25:44.872Z,99650.19
2022-12-08T20:28:11.887Z,99642.84
2022-12-08T20:30:40.038Z,99638.81
2022-12-08T20:33:07.275Z,99641.88
2022-12-08T20:35:34.175Z,99649.63
2022-12-08T20:38:01.080Z,99646.72
2022-12-08T20:40:27.963Z,99646.78
2022-12-08T20:42:54.803Z,99647.47
2022-12-08T20:45:21.643Z,99644.41
2022-12-08T20:47:48.463Z,99650.91
2022-12-08T20:50:15.472Z,99649.31
2022-12-08T20:52:42.463Z,99649.75
2022-12-08T20:55:09.993Z,99646.94
2022-12-08T20:57:37.036Z,99646.88
2022-12-08T21:00:05.725Z,99650.72
2022-12-08T21:02:33.295Z,99639.91
2022-12-08T21:05:00.697Z,99635.53
2022-12-08T21:07:27.827Z,99638.59
2022-12-08T21:09:54.851Z,99647.50
2022-12-08T21:12:21.881Z,99646.06
2022-12-08T21:14:48.856Z,99645.69
2022-12-08T21:17:15.936Z,99645.56
2022-12-08T21:19:43.069Z,99637.19
2022-12-08T21:22:09.916Z,99657.00
2022-12-08T21:24:38.132Z,99643.50
2022-12-08T21:27:05.208Z,99643.81
2022-12-08T21:29:32.171Z,99640.28
2022-12-08T21:32:00.412Z,99641.81
2022-12-08T21:34:31.908Z,99648.00
2022-12-08T21:36:59.131Z,99656.09
2022-12-08T21:39:26.136Z,99649.00
2022-12-08T21:42:12.076Z,99650.66
2022-12-08T21:44:38.974Z,99657.94
2022-12-08T21:47:06.541Z,99661.31
2022-12-08T21:49:33.728Z,99662.13
2022-12-08T21:52:00.668Z,99660.50
2022-12-08T21:54:27.758Z,99660.75
2022-12-08T21:56:54.728Z,99645.56
2022-12-08T21:59:21.602Z,99648.94
2022-12-08T22:01:48.666Z,99651.53
2022-12-08T22:04:21.442Z,99651.53
2022-12-08T22:06:49.129Z,99642.91
2022-12-08T22:09:16.076Z,99651.66
2022-12-08T22:11:44.128Z,99646.88
2022-12-08T22:14:14.850Z,99656.88
2022-12-08T22:16:43.229Z,99651.97
2022-12-08T22:19:10.710Z,99647.59
2022-12-08T22:21:38.392Z,99650.09
2022-12-08T22:24:06.179Z,99649.44
2022-12-08T22:26:33.662Z,99646.63
2022-12-08T22:29:00.633Z,99644.75
2022-12-08T22:31:27.853Z,99642.72
2022-12-08T22:33:55.099Z,99637.44
2022-12-08T22:36:24.685Z,99631.78
2022-12-08T22:38:53.981Z,99634.31
2022-12-08T22:41:21.752Z,99632.75
2022-12-08T22:43:49.740Z,99639.47
2022-12-08T22:46:24.078Z,99646.13
2022-12-08T22:48:52.345Z,99637.28
2022-12-08T22:51:22.519Z,99640.34
2022-12-08T22:53:50.152Z,99635.72
2022-12-08T22:56:19.177Z,99638.16
2022-12-08T22:58:46.467Z,99636.97
2022-12-08T23:01:22.158Z,99627.75
2022-12-08T23:03:49.429Z,99622.19
2022-12-08T23:06:16.992Z,99626.06
2022-12-08T23:08:44.796Z,99617.38
2022-12-08T23:11:12.884Z,99615.09
2022-12-08T23:13:40.006Z,99615.91
2022-12-08T23:16:08.979Z,99618.78
2022-12-08T23:18:37.004Z,99613.41
2022-12-08T23:21:06.874Z,99601.97
2022-12-08T23:23:33.773Z,99609.41
2022-12-08T23:26:01.025Z,99604.88
2022-12-08T23:28:28.035Z,99606.66
2022-12-08T23:30:55.186Z,99602.59
2022-12-08T23:33:22.546Z,99598.22
2022-12-08T23:35:58.033Z,99589.41
2022-12-08T23:38:25.426Z,99586.38
2022-12-08T23:40:53.216Z,99579.25
2022-12-08T23:43:20.140Z,99588.56
2022-12-08T23:45:48.593Z,99587.31
2022-12-08T23:48:15.807Z,99598.03
2022-12-08T23:50:42.820Z,99587.94
2022-12-08T23:53:09.729Z,99592.19
2022-12-08T23:55:36.593Z,99592.34
2022-12-08T23:58:03.736Z,99594.72
